createdAt,value
2018-05-19T00:02:31.740Z,101273.06
2018-05-19T00:05:04.303Z,101271.33
2018-05-19T00:07:36.866Z,101274.34
2018-05-19T00:10:09.482Z,101272.25
2018-05-19T00:12:42.021Z,101277.76
2018-05-19T00:15:14.552Z,101271.33
2018-05-19T00:17:47.095Z,101270.96
2018-05-19T00:20:19.611Z,101277.76
2018-05-19T00:22:52.143Z,101276.92
2018-05-19T00:25:24.657Z,101276.06
2018-05-19T00:27:57.190Z,101283.75
2018-05-19T00:30:29.701Z,101281.62
2018-05-19T00:33:02.241Z,101289.78
2018-05-19T00:35:35.200Z,101289.73
2018-05-19T00:38:07.777Z,101294.48
2018-05-19T00:40:40.346Z,101294.06
2018-05-19T00:43:12.888Z,101297.05
2018-05-19T00:45:45.453Z,101300.15
2018-05-19T00:48:17.987Z,101302.64
2018-05-19T00:50:50.503Z,101295.77
2018-05-19T00:53:23.034Z,101296.22
2018-05-19T00:55:55.541Z,101299.62
2018-05-19T00:58:28.065Z,101302.64
2018-05-19T01:01:00.574Z,101296.66
2018-05-19T01:03:33.109Z,101298.39
2018-05-19T01:06:06.127Z,101295.89
2018-05-19T01:08:38.660Z,101288.25
2018-05-19T01:11:11.198Z,101287.52
2018-05-19T01:13:43.721Z,101285.76
2018-05-19T01:16:16.269Z,101291.77
2018-05-19T01:18:48.775Z,101288.33
2018-05-19T01:21:21.304Z,101291.37
2018-05-19T01:23:53.815Z,101290.09
2018-05-19T01:26:26.344Z,101291.84
2018-05-19T01:28:58.850Z,101294.47
2018-05-19T01:31:31.385Z,101292.37
2018-05-19T01:34:03.889Z,101295.78
2018-05-19T01:36:37.408Z,101294.15
2018-05-19T01:39:10.235Z,101297.61
2018-05-19T01:41:42.784Z,101290.31
2018-05-19T01:44:15.336Z,101287.77
2018-05-19T01:46:47.881Z,101286.06
2018-05-19T01:49:20.406Z,101284.31
2018-05-19T01:51:52.944Z,101276.59
2018-05-19T01:54:25.437Z,101287.38
2018-05-19T01:56:57.966Z,101288.61
2018-05-19T01:59:30.465Z,101284.86
2018-05-19T02:02:02.996Z,101281.97
2018-05-19T02:04:36.415Z,101282.38
2018-05-19T02:07:09.120Z,101286.63
2018-05-19T02:09:41.702Z,101281.42
2018-05-19T02:12:14.278Z,101286.56
2018-05-19T02:14:46.795Z,101290.89
2018-05-19T02:17:19.358Z,101285.33
2018-05-19T02:19:51.887Z,101278.84
2018-05-19T02:22:24.412Z,101285.70
2018-05-19T02:24:56.930Z,101287.40
2018-05-19T02:27:29.521Z,101287.40
2018-05-19T02:30:02.042Z,101278.83
2018-05-19T02:32:34.968Z,101281.84
2018-05-19T02:35:08.178Z,101280.55
2018-05-19T02:37:40.730Z,101278.77
2018-05-19T02:40:13.329Z,101277.56
2018-05-19T02:42:46.346Z,101277.20
2018-05-19T02:45:18.894Z,101280.19
2018-05-19T02:47:51.425Z,101288.78
2018-05-19T02:50:23.956Z,101294.82
2018-05-19T02:52:56.499Z,101291.88
2018-05-19T02:55:29.024Z,101283.33
2018-05-19T02:58:01.568Z,101282.41
2018-05-19T03:00:34.094Z,101279.39
2018-05-19T03:03:07.043Z,101276.41
2018-05-19T03:05:39.612Z,101280.68
2018-05-19T03:08:12.241Z,101281.52
2018-05-19T03:10:44.832Z,101283.65
2018-05-19T03:13:17.441Z,101281.08
2018-05-19T03:15:49.955Z,101277.31
2018-05-19T03:18:22.521Z,101276.44
2018-05-19T03:20:55.080Z,101281.59
2018-05-19T03:23:27.609Z,101279.50
2018-05-19T03:26:00.148Z,101279.10
2018-05-19T03:28:32.677Z,101276.48
2018-05-19T03:31:06.668Z,101284.53
2018-05-19T03:33:39.358Z,101290.52
2018-05-19T03:36:11.963Z,101294.35
2018-05-19T03:38:44.515Z,101299.07
2018-05-19T03:41:17.070Z,101290.48
2018-05-19T03:43:49.619Z,101301.13
2018-05-19T03:46:22.160Z,101295.98
2018-05-19T03:48:54.736Z,101307.13
2018-05-19T03:51:27.249Z,101310.07
2018-05-19T03:53:59.823Z,101308.78
2018-05-19T03:56:32.328Z,101309.16
2018-05-19T03:59:17.080Z,101310.42
2018-05-19T04:04:56.592Z,101312.86
2018-05-19T04:07:29.117Z,101315.86
2018-05-19T04:10:01.630Z,101316.70
2018-05-19T04:12:34.227Z,101322.61
2018-05-19T04:15:08.150Z,101321.66
2018-05-19T04:17:40.735Z,101323.30
2018-05-19T04:20:13.284Z,101327.08
2018-05-19T04:22:45.893Z,101326.92
2018-05-19T04:25:18.428Z,101326.45
2018-05-19T04:27:50.978Z,101329.78
2018-05-19T04:30:23.500Z,101334.85
2018-05-19T04:32:56.140Z,101333.55
2018-05-19T04:35:28.698Z,101342.47
2018-05-19T04:38:01.243Z,101338.16
2018-05-19T04:40:33.792Z,101337.72
2018-05-19T04:43:06.652Z,101336.82
2018-05-19T04:45:39.778Z,101341.50
2018-05-19T04:48:12.686Z,101336.72
2018-05-19T04:50:45.256Z,101342.57
2018-05-19T04:53:17.808Z,101344.56
2018-05-19T04:55:50.316Z,101341.89
2018-05-19T04:58:22.850Z,101344.34
2018-05-19T05:00:55.352Z,101343.34
2018-05-19T05:03:27.876Z,101353.95
2018-05-19T05:06:00.420Z,101351.33
2018-05-19T05:08:32.952Z,101345.26
2018-05-19T05:11:06.705Z,101350.73
2018-05-19T05:13:39.260Z,101353.73
2018-05-19T05:16:11.884Z,101359.33
2018-05-19T05:18:44.391Z,101360.56
2018-05-19T05:21:16.928Z,101363.00
2018-05-19T05:23:49.459Z,101362.24
2018-05-19T05:26:21.968Z,101366.52
2018-05-19T05:28:54.497Z,101366.47
2018-05-19T05:31:27.013Z,101369.75
2018-05-19T05:33:59.552Z,101368.77
2018-05-19T05:36:32.098Z,101375.52
2018-05-19T05:39:04.635Z,101373.16
2018-05-19T05:41:37.326Z,101369.58
2018-05-19T05:44:10.142Z,101381.11
2018-05-19T05:46:42.670Z,101380.58
2018-05-19T05:49:15.499Z,101381.92
2018-05-19T05:51:48.029Z,101392.42
2018-05-19T05:54:20.557Z,101397.01
2018-05-19T05:56:53.077Z,101399.08
2018-05-19T05:59:25.627Z,101389.90
2018-05-19T06:01:58.142Z,101389.93
2018-05-19T06:04:30.677Z,101394.55
2018-05-19T06:07:03.207Z,101404.17
2018-05-19T06:09:35.876Z,101399.58
2018-05-19T06:12:08.873Z,101406.36
2018-05-19T06:14:41.449Z,101407.42
2018-05-19T06:17:14.029Z,101409.81
2018-05-19T06:19:46.597Z,101410.20
2018-05-19T06:22:19.106Z,101413.50
2018-05-19T06:24:51.701Z,101422.83
2018-05-19T06:27:24.178Z,101420.81
2018-05-19T06:29:56.717Z,101425.80
2018-05-19T06:32:29.249Z,101427.11
2018-05-19T06:35:01.797Z,101422.17
2018-05-19T06:37:34.419Z,101427.65
2018-05-19T06:40:07.669Z,101425.16
2018-05-19T06:42:40.199Z,101424.17
2018-05-19T06:45:12.735Z,101423.52
2018-05-19T06:47:45.264Z,101417.43
2018-05-19T06:50:17.807Z,101422.30
2018-05-19T06:52:50.330Z,101423.63
2018-05-19T06:55:22.861Z,101429.82
2018-05-19T06:57:55.444Z,101429.78
2018-05-19T07:00:27.987Z,101421.27
2018-05-19T07:03:00.518Z,101427.72
2018-05-19T07:05:33.088Z,101434.56
2018-05-19T07:08:06.236Z,101432.27
2018-05-19T07:10:38.753Z,101434.69
2018-05-19T07:13:11.291Z,101438.23
2018-05-19T07:15:43.865Z,101442.91
2018-05-19T07:18:16.448Z,101440.56
2018-05-19T07:20:48.984Z,101445.17
2018-05-19T07:23:21.501Z,101445.88
2018-05-19T07:25:54.044Z,101445.20
2018-05-19T07:28:26.577Z,101449.17
2018-05-19T07:31:00.517Z,101447.75
2018-05-19T07:33:33.344Z,101449.55
2018-05-19T07:36:07.411Z,101443.23
2018-05-19T07:38:40.429Z,101449.41
2018-05-19T07:41:13.251Z,101446.38
2018-05-19T07:43:46.309Z,101445.45
2018-05-19T07:46:19.404Z,101454.87
2018-05-19T07:48:51.993Z,101452.31
2018-05-19T07:51:24.542Z,101454.06
2018-05-19T07:53:57.086Z,101453.25
2018-05-19T07:56:29.604Z,101454.95
2018-05-19T07:59:02.150Z,101452.86
2018-05-19T08:01:35.064Z,101459.05
2018-05-19T08:04:07.666Z,101451.92
2018-05-19T08:06:40.214Z,101459.70
2018-05-19T08:09:12.763Z,101456.22
2018-05-19T08:11:45.293Z,101457.09
2018-05-19T08:14:17.880Z,101457.35
2018-05-19T08:16:50.388Z,101456.45
2018-05-19T08:19:22.916Z,101455.81
2018-05-19T08:21:55.730Z,101457.62
2018-05-19T08:24:28.348Z,101452.83
2018-05-19T08:27:00.869Z,101459.43
2018-05-19T08:29:33.398Z,101459.79
2018-05-19T08:32:07.422Z,101455.88
2018-05-19T08:34:39.991Z,101458.08
2018-05-19T08:37:12.507Z,101457.72
2018-05-19T08:39:45.226Z,101449.83
2018-05-19T08:42:18.419Z,101451.62
2018-05-19T08:44:51.076Z,101445.12
2018-05-19T08:47:23.610Z,101445.44
2018-05-19T08:49:56.141Z,101445.36
2018-05-19T08:52:28.932Z,101449.16
2018-05-19T08:55:01.515Z,101450.73
2018-05-19T08:57:34.090Z,101453.51
2018-05-19T09:00:08.118Z,101450.46
2018-05-19T09:02:40.691Z,101448.63
2018-05-19T09:05:13.266Z,101448.37
2018-05-19T09:07:45.838Z,101443.47
2018-05-19T09:10:18.391Z,101446.32
2018-05-19T09:12:51.010Z,101443.45
2018-05-19T09:15:23.471Z,101453.41
2018-05-19T09:17:55.988Z,101450.70
2018-05-19T09:20:28.513Z,101448.45
2018-05-19T09:23:01.020Z,101439.70
2018-05-19T09:25:33.556Z,101437.46
2018-05-19T09:28:07.566Z,101441.61
2018-05-19T09:30:40.160Z,101436.89
2018-05-19T09:33:12.704Z,101439.35
2018-05-19T09:35:45.290Z,101441.31
2018-05-19T09:38:17.812Z,101439.81
2018-05-19T09:40:50.379Z,101443.73
2018-05-19T09:43:22.944Z,101438.63
2018-05-19T09:45:55.492Z,101445.16
2018-05-19T09:48:28.036Z,101442.82
2018-05-19T09:51:00.566Z,101445.82
2018-05-19T09:53:33.073Z,101442.35
2018-05-19T09:56:06.094Z,101449.46
2018-05-19T09:58:39.305Z,101448.09
2018-05-19T10:01:11.853Z,101443.91
2018-05-19T10:03:44.385Z,101444.48
2018-05-19T10:06:16.995Z,101439.65
2018-05-19T10:08:49.520Z,101437.20
2018-05-19T10:11:22.112Z,101447.26
2018-05-19T10:13:54.642Z,101447.80
2018-05-19T10:16:27.188Z,101446.81
2018-05-19T10:18:59.706Z,101443.06
2018-05-19T10:21:32.258Z,101449.95
2018-05-19T10:24:04.920Z,101447.47
2018-05-19T10:26:37.634Z,101451.47
2018-05-19T10:29:10.181Z,101448.77
2018-05-19T10:31:42.738Z,101443.49
2018-05-19T10:34:15.264Z,101443.83
2018-05-19T10:36:47.795Z,101445.84
2018-05-19T10:39:20.301Z,101445.04
2018-05-19T10:41:52.895Z,101441.98
2018-05-19T10:44:25.421Z,101443.80
2018-05-19T10:46:57.935Z,101444.30
2018-05-19T10:49:30.461Z,101442.84
2018-05-19T10:52:02.992Z,101448.77
2018-05-19T10:54:35.717Z,101441.91
2018-05-19T10:57:09.156Z,101447.41
2018-05-19T10:59:41.733Z,101446.98
2018-05-19T11:02:14.253Z,101446.44
2018-05-19T11:04:46.782Z,101451.71
2018-05-19T11:07:19.287Z,101457.65
2018-05-19T11:09:51.917Z,101455.86
2018-05-19T11:12:24.348Z,101456.31
2018-05-19T11:14:56.883Z,101456.98
2018-05-19T11:17:29.399Z,101450.13
2018-05-19T11:22:40.479Z,101453.99
2018-05-19T11:25:13.014Z,101447.53
2018-05-19T11:27:45.813Z,101451.59
2018-05-19T11:31:28.949Z,101444.73
2018-05-19T11:34:01.526Z,101450.50
2018-05-19T11:36:34.113Z,101441.13
2018-05-19T11:39:06.659Z,101448.83
2018-05-19T11:41:39.289Z,101452.66
2018-05-19T11:44:11.842Z,101448.59
2018-05-19T11:46:44.379Z,101445.78
2018-05-19T11:49:18.424Z,101448.09
2018-05-19T11:51:50.969Z,101452.44
2018-05-19T11:54:23.727Z,101457.91
2018-05-19T11:56:56.347Z,101454.09
2018-05-19T11:59:28.816Z,101451.88
2018-05-19T12:02:01.355Z,101451.45
2018-05-19T12:04:33.878Z,101453.07
2018-05-19T12:07:07.681Z,101456.03
2018-05-19T12:09:40.220Z,101459.30
2018-05-19T12:12:12.828Z,101463.61
2018-05-19T12:14:45.311Z,101460.73
2018-05-19T12:17:17.854Z,101460.95
2018-05-19T12:19:50.390Z,101464.22
2018-05-19T12:22:22.945Z,101465.18
2018-05-19T12:24:55.502Z,101457.81
2018-05-19T12:27:28.139Z,101464.08
2018-05-19T12:30:00.796Z,101463.94
2018-05-19T12:32:33.344Z,101464.09
2018-05-19T12:35:05.963Z,101461.36
2018-05-19T12:37:38.520Z,101462.53
2018-05-19T12:40:11.102Z,101469.49
2018-05-19T12:42:43.638Z,101466.53
2018-05-19T12:45:16.229Z,101460.33
2018-05-19T12:47:48.768Z,101454.16
2018-05-19T12:50:21.300Z,101463.06
2018-05-19T12:52:53.803Z,101460.56
2018-05-19T12:55:26.332Z,101460.23
2018-05-19T12:57:58.831Z,101456.44
2018-05-19T13:00:31.368Z,101453.59
2018-05-19T13:03:06.719Z,101453.78
2018-05-19T13:05:39.293Z,101449.22
2018-05-19T13:08:12.032Z,101450.91
2018-05-19T13:10:44.598Z,101451.13
2018-05-19T13:13:18.503Z,101446.44
2018-05-19T13:15:51.848Z,101446.89
2018-05-19T13:18:24.427Z,101440.28
2018-05-19T13:20:56.990Z,101434.88
2018-05-19T13:23:29.519Z,101435.19
2018-05-19T13:26:02.117Z,101430.86
2018-05-19T13:28:36.434Z,101429.11
2018-05-19T13:31:09.033Z,101438.56
2018-05-19T13:33:41.584Z,101439.08
2018-05-19T13:36:14.184Z,101444.59
2018-05-19T13:38:46.705Z,101441.42
2018-05-19T13:41:19.264Z,101445.91
2018-05-19T13:43:51.796Z,101443.52
2018-05-19T13:46:24.341Z,101445.58
2018-05-19T13:48:56.857Z,101439.77
2018-05-19T13:51:29.389Z,101434.86
2018-05-19T13:54:01.917Z,101442.07
2018-05-19T13:56:34.493Z,101443.52
2018-05-19T13:59:07.250Z,101442.34
2018-05-19T14:01:39.829Z,101444.59
2018-05-19T14:04:12.362Z,101432.03
2018-05-19T14:06:44.970Z,101424.90
2018-05-19T14:09:17.501Z,101426.11
2018-05-19T14:11:50.110Z,101417.38
2018-05-19T14:14:22.640Z,101417.64
2018-05-19T14:16:55.189Z,101414.59
2018-05-19T14:22:07.120Z,101417.11
2018-05-19T14:24:39.721Z,101424.11
2018-05-19T14:27:13.767Z,101415.03
2018-05-19T14:29:46.360Z,101419.34
2018-05-19T14:32:18.940Z,101421.69
2018-05-19T14:34:51.481Z,101419.59
2018-05-19T14:37:24.035Z,101410.76
2018-05-19T14:39:56.553Z,101410.24
2018-05-19T14:42:29.132Z,101405.83
2018-05-19T14:45:01.693Z,101401.15
2018-05-19T14:47:34.278Z,101398.11
2018-05-19T14:50:07.365Z,101397.36
2018-05-19T14:52:39.924Z,101396.58
2018-05-19T14:55:12.484Z,101400.21
2018-05-19T14:57:45.041Z,101397.95
2018-05-19T15:00:17.612Z,101394.70
2018-05-19T15:02:50.160Z,101399.73
2018-05-19T15:05:22.687Z,101389.37
2018-05-19T15:07:55.267Z,101391.36
2018-05-19T15:10:27.779Z,101391.62
2018-05-19T15:13:00.313Z,101400.38
2018-05-19T15:15:32.844Z,101398.66
2018-05-19T15:18:06.486Z,101393.05
2018-05-19T15:20:40.587Z,101395.48
2018-05-19T15:23:13.133Z,101392.00
2018-05-19T15:25:46.187Z,101393.65
2018-05-19T15:28:18.719Z,101390.59
2018-05-19T15:30:51.239Z,101389.30
2018-05-19T15:33:23.773Z,101388.41
2018-05-19T15:35:56.279Z,101382.39
2018-05-19T15:38:28.813Z,101380.28
2018-05-19T15:41:01.313Z,101374.27
2018-05-19T15:43:33.837Z,101373.52
2018-05-19T15:46:06.415Z,101379.09
2018-05-19T15:48:39.003Z,101373.88
2018-05-19T15:51:11.769Z,101375.36
2018-05-19T15:53:44.317Z,101367.60
2018-05-19T15:56:16.983Z,101371.90
2018-05-19T15:58:49.458Z,101360.39
2018-05-19T16:01:21.991Z,101365.21
2018-05-19T16:03:54.504Z,101361.61
2018-05-19T16:06:27.059Z,101365.00
2018-05-19T16:08:59.567Z,101361.81
2018-05-19T16:11:32.105Z,101363.83
2018-05-19T16:14:04.618Z,101360.62
2018-05-19T16:16:37.448Z,101360.94
2018-05-19T16:19:09.992Z,101350.23
2018-05-19T16:21:42.525Z,101355.01
2018-05-19T16:24:15.220Z,101359.27
2018-05-19T16:26:47.766Z,101359.69
2018-05-19T16:29:20.291Z,101361.45
2018-05-19T16:31:52.830Z,101358.95
2018-05-19T16:34:25.346Z,101359.16
2018-05-19T16:36:57.873Z,101350.03
2018-05-19T16:39:30.427Z,101350.73
2018-05-19T16:42:02.982Z,101351.30
2018-05-19T16:44:35.588Z,101350.22
2018-05-19T16:47:08.280Z,101355.27
2018-05-19T16:49:40.854Z,101356.82
2018-05-19T16:52:13.424Z,101355.34
2018-05-19T16:54:45.968Z,101357.06
2018-05-19T16:57:18.508Z,101351.86
2018-05-19T16:59:51.263Z,101346.50
2018-05-19T17:02:23.797Z,101351.86
2018-05-19T17:04:56.352Z,101349.88
2018-05-19T17:07:28.957Z,101348.33
2018-05-19T17:10:01.491Z,101348.60
2018-05-19T17:12:34.175Z,101351.02
2018-05-19T17:15:07.133Z,101345.23
2018-05-19T17:17:41.167Z,101351.47
2018-05-19T17:20:15.106Z,101339.81
2018-05-19T17:22:47.652Z,101348.14
2018-05-19T17:25:20.163Z,101346.48
2018-05-19T17:27:52.693Z,101349.02
2018-05-19T17:30:25.206Z,101347.67
2018-05-19T17:32:57.742Z,101351.73
2018-05-19T17:35:30.273Z,101353.62
2018-05-19T17:38:02.802Z,101353.77
2018-05-19T17:40:36.793Z,101360.07
2018-05-19T17:43:09.388Z,101358.89
2018-05-19T17:45:41.923Z,101363.48
2018-05-19T17:48:14.925Z,101363.33
2018-05-19T17:50:47.636Z,101359.39
2018-05-19T17:53:20.187Z,101357.83
2018-05-19T17:55:52.695Z,101360.34
2018-05-19T17:58:25.227Z,101364.19
2018-05-19T18:00:57.738Z,101362.73
2018-05-19T18:03:30.260Z,101362.72
2018-05-19T18:06:02.779Z,101364.03
2018-05-19T18:08:36.034Z,101362.18
2018-05-19T18:11:08.628Z,101362.13
2018-05-19T18:13:41.205Z,101361.12
2018-05-19T18:16:13.724Z,101364.69
2018-05-19T18:18:46.408Z,101361.10
2018-05-19T18:21:18.873Z,101359.01
2018-05-19T18:23:51.407Z,101365.95
2018-05-19T18:26:23.922Z,101359.80
2018-05-19T18:28:56.449Z,101371.45
2018-05-19T18:31:28.967Z,101369.89
2018-05-19T18:34:01.494Z,101369.52
2018-05-19T18:36:34.018Z,101374.39
2018-05-19T18:39:06.551Z,101373.61
2018-05-19T18:41:39.202Z,101377.13
2018-05-19T18:44:11.783Z,101382.08
2018-05-19T18:46:44.700Z,101381.79
2018-05-19T18:49:17.254Z,101380.98
2018-05-19T18:51:49.797Z,101387.17
2018-05-19T18:54:22.332Z,101390.20
2018-05-19T18:56:54.840Z,101391.51
2018-05-19T18:59:27.485Z,101395.45
2018-05-19T19:02:00.005Z,101395.12
2018-05-19T19:04:32.554Z,101395.21
2018-05-19T19:07:05.189Z,101399.50
2018-05-19T19:09:37.891Z,101397.37
2018-05-19T19:12:10.508Z,101399.52
2018-05-19T19:14:43.472Z,101400.88
2018-05-19T19:17:16.066Z,101408.20
2018-05-19T19:19:48.574Z,101409.66
2018-05-19T19:22:21.098Z,101419.13
2018-05-19T19:24:53.611Z,101416.53
2018-05-19T19:27:26.146Z,101428.23
2018-05-19T19:29:58.663Z,101434.60
2018-05-19T19:32:31.285Z,101440.13
2018-05-19T19:35:03.763Z,101442.16
2018-05-19T19:37:36.457Z,101443.70
2018-05-19T19:40:09.820Z,101446.38
2018-05-19T19:42:42.422Z,101446.62
2018-05-19T19:45:14.925Z,101453.09
2018-05-19T19:47:47.492Z,101450.75
2018-05-19T19:50:20.012Z,101458.05
2018-05-19T19:52:52.546Z,101455.69
2018-05-19T19:55:25.057Z,101462.75
2018-05-19T19:57:57.596Z,101458.27
2018-05-19T20:00:30.110Z,101458.58
2018-05-19T20:03:02.747Z,101455.92
2018-05-19T20:05:35.373Z,101462.46
2018-05-19T20:08:07.924Z,101464.47
2018-05-19T20:10:40.453Z,101462.53
2018-05-19T20:13:12.996Z,101465.70
2018-05-19T20:15:45.519Z,101469.75
2018-05-19T20:18:18.067Z,101463.11
2018-05-19T20:20:50.580Z,101467.07
2018-05-19T20:23:23.124Z,101463.44
2018-05-19T20:25:55.644Z,101465.70
2018-05-19T20:28:28.177Z,101459.48
2018-05-19T20:31:00.685Z,101464.39
2018-05-19T20:33:33.230Z,101464.11
2018-05-19T20:36:06.547Z,101461.36
2018-05-19T20:38:39.113Z,101468.97
2018-05-19T20:41:11.620Z,101471.67
2018-05-19T20:43:44.188Z,101473.98
2018-05-19T20:46:16.701Z,101477.58
2018-05-19T20:48:49.234Z,101478.63
2018-05-19T20:51:21.746Z,101477.07
2018-05-19T20:53:54.285Z,101482.84
2018-05-19T20:56:26.792Z,101484.34
2018-05-19T20:58:59.333Z,101480.19
2018-05-19T21:01:31.889Z,101485.03
2018-05-19T21:04:04.459Z,101480.87
2018-05-19T21:06:37.332Z,101482.78
2018-05-19T21:09:09.929Z,101486.33
2018-05-19T21:11:42.698Z,101489.55
2018-05-19T21:14:15.238Z,101493.55
2018-05-19T21:16:47.750Z,101495.41
2018-05-19T21:19:20.274Z,101494.68
2018-05-19T21:21:52.802Z,101499.52
2018-05-19T21:24:25.346Z,101495.77
2018-05-19T21:26:57.861Z,101495.49
2018-05-19T21:29:30.393Z,101500.30
2018-05-19T21:32:02.907Z,101500.44
2018-05-19T21:34:36.194Z,101501.80
2018-05-19T21:37:08.995Z,101504.91
2018-05-19T21:39:41.808Z,101509.02
2018-05-19T21:42:14.570Z,101513.00
2018-05-19T21:44:47.390Z,101511.80
2018-05-19T21:47:19.921Z,101512.69
2018-05-19T21:49:52.554Z,101511.91
2018-05-19T21:52:25.013Z,101519.23
2018-05-19T21:54:57.544Z,101525.25
2018-05-19T21:57:30.162Z,101519.30
2018-05-19T22:00:02.633Z,101521.98
2018-05-19T22:02:35.452Z,101528.11
2018-05-19T22:05:08.045Z,101538.87
2018-05-19T22:07:40.605Z,101539.78
2018-05-19T22:10:13.177Z,101542.39
2018-05-19T22:12:45.704Z,101540.81
2018-05-19T22:15:18.258Z,101538.73
2018-05-19T22:17:50.784Z,101531.97
2018-05-19T22:20:23.321Z,101532.10
2018-05-19T22:22:55.836Z,101537.70
2018-05-19T22:25:28.373Z,101537.78
2018-05-19T22:28:00.884Z,101527.55
2018-05-19T22:30:33.425Z,101534.92
2018-05-19T22:33:07.132Z,101531.94
2018-05-19T22:35:39.690Z,101533.30
2018-05-19T22:38:12.331Z,101530.77
2018-05-19T22:40:44.914Z,101531.27
2018-05-19T22:43:17.533Z,101538.56
2018-05-19T22:45:50.105Z,101539.02
2018-05-19T22:48:22.676Z,101543.38
2018-05-19T22:50:55.234Z,101542.63
2018-05-19T22:53:27.850Z,101543.97
2018-05-19T22:56:00.413Z,101543.25
2018-05-19T22:58:32.967Z,101541.64
2018-05-19T23:01:06.025Z,101546.35
2018-05-19T23:03:38.572Z,101540.84
2018-05-19T23:06:11.101Z,101550.23
2018-05-19T23:08:43.719Z,101550.71
2018-05-19T23:11:16.252Z,101553.71
2018-05-19T23:13:48.800Z,101558.02
2018-05-19T23:16:21.323Z,101554.66
2018-05-19T23:18:53.899Z,101555.16
2018-05-19T23:21:26.418Z,101561.20
2018-05-19T23:23:58.946Z,101564.67
2018-05-19T23:26:31.462Z,101566.78
2018-05-19T23:29:03.999Z,101564.70
2018-05-19T23:31:36.841Z,101565.22
2018-05-19T23:34:09.390Z,101571.64
2018-05-19T23:36:41.933Z,101572.57
2018-05-19T23:39:14.489Z,101571.79
2018-05-19T23:41:47.014Z,101573.09
2018-05-19T23:44:19.571Z,101577.80
2018-05-19T23:46:52.086Z,101578.69
2018-05-19T23:49:24.631Z,101586.81
2018-05-19T23:51:57.205Z,101583.47
2018-05-19T23:54:29.790Z,101580.91
2018-05-19T23:57:02.318Z,101579.20
2018-05-19T23:59:36.158Z,101585.21
